Time;durP1;ratioP1;P1;durP2;ratioP2;P2;SDS_P1;SDS_P2;PMS_P1;PMS_P2;Temp;Humidity;BMP_temperature;BMP_pressure;BME280_temperature;BME280_humidity;BME280_pressure;Samples;Min_cycle;Max_cycle;Signal;HPM_P1;HPM_P2
2022/05/17 00:02:07;;;;;;;0.68;0.50;;;;;;;22.29;49.39;101944.22;5087680;28;20035;-53
2022/05/17 00:04:33;;;;;;;1.08;0.90;;;;;;;22.28;49.61;101943.38;5086047;28;20111;-51
2022/05/17 00:06:59;;;;;;;1.10;0.70;;;;;;;22.27;49.69;101943.53;5085733;28;20050;-51
2022/05/17 00:09:25;;;;;;;0.55;0.50;;;;;;;22.28;49.22;101950.66;5085602;28;20028;-52
2022/05/17 00:11:51;;;;;;;0.73;0.60;;;;;;;22.27;49.62;101947.09;5084760;28;20095;-50
2022/05/17 00:14:17;;;;;;;0.90;0.70;;;;;;;22.27;49.30;101946.25;5085489;28;20031;-50
2022/05/17 00:16:43;;;;;;;0.90;0.70;;;;;;;22.26;49.51;101945.41;5083583;28;20419;-50
2022/05/17 00:19:08;;;;;;;1.48;0.73;;;;;;;22.27;49.38;101940.84;5084501;28;20032;-49
2022/05/17 00:21:34;;;;;;;1.20;0.65;;;;;;;22.26;49.54;101945.41;5084507;28;20096;-47
2022/05/17 00:23:59;;;;;;;0.85;0.50;;;;;;;22.26;49.39;101947.25;5085414;28;20400;-46
2022/05/17 00:26:25;;;;;;;1.05;0.60;;;;;;;22.26;49.06;101942.69;5085190;28;20032;-46
2022/05/17 00:28:51;;;;;;;1.20;0.60;;;;;;;22.24;49.22;101941.16;5085756;28;20048;-45
2022/05/17 00:31:16;;;;;;;1.10;0.55;;;;;;;22.25;49.36;101940.97;5083940;28;20025;-49
2022/05/17 00:33:41;;;;;;;0.55;0.45;;;;;;;22.24;49.51;101933.88;5077292;28;20033;-48
2022/05/17 00:36:06;;;;;;;1.02;0.45;;;;;;;22.24;49.32;101935.75;5076927;28;20032;-47
2022/05/17 00:38:32;;;;;;;0.80;0.70;;;;;;;22.23;49.52;101932.19;5085130;28;20040;-46
2022/05/17 00:40:57;;;;;;;1.25;0.70;;;;;;;22.23;49.23;101934.06;5085086;28;20017;-51
2022/05/17 00:46:48;;;;;;;0.65;0.50;;;;;;;22.22;49.44;101941.34;5060997;28;20104;-45
2022/05/17 00:49:19;;;;;;;2.10;0.80;;;;;;;22.21;49.27;101940.47;5062559;28;20202;-46
2022/05/17 00:51:45;;;;;;;0.80;0.60;;;;;;;22.20;49.18;101941.47;5045706;28;20117;-47
2022/05/17 00:54:14;;;;;;;0.77;0.60;;;;;;;22.19;49.36;101934.38;5062126;28;20636;-46
2022/05/17 00:56:49;;;;;;;1.55;0.70;;;;;;;22.20;49.12;101927.94;5044921;28;20043;-47
2022/05/17 00:59:15;;;;;;;1.10;0.70;;;;;;;22.19;49.37;101928.97;5045947;28;20754;-46
2022/05/17 01:01:41;;;;;;;0.88;0.70;;;;;;;22.19;49.15;101931.66;5061813;28;20063;-45
2022/05/17 01:04:09;;;;;;;1.23;0.70;;;;;;;22.19;49.03;101928.13;5062081;28;20054;-47
2022/05/17 01:06:39;;;;;;;0.90;0.57;;;;;;;22.18;48.98;101929.97;5045138;28;20036;-45
2022/05/17 01:09:05;;;;;;;0.70;0.60;;;;;;;22.17;49.40;101922.88;5061966;28;20043;-50
2022/05/17 01:11:31;;;;;;;1.10;0.60;;;;;;;22.18;49.43;101931.84;5061000;28;20033;-44
2022/05/17 01:16:41;;;;;;;1.10;0.80;;;;;;;22.16;49.17;101929.28;5060324;28;20043;-47
2022/05/17 01:19:08;;;;;;;0.50;0.50;;;;;;;22.16;49.30;101925.72;5061845;28;20089;-48
2022/05/17 01:21:33;;;;;;;0.80;0.65;;;;;;;22.14;49.02;101920.50;5067491;28;20036;-48
2022/05/17 01:23:58;;;;;;;0.50;0.50;;;;;;;22.12;49.20;101924.31;5080210;28;20040;-48
2022/05/17 01:26:27;;;;;;;0.50;0.40;;;;;;;22.16;49.16;101926.56;5070731;28;20525;-47
2022/05/17 01:28:52;;;;;;;0.60;0.57;;;;;;;22.15;49.09;101926.75;5084193;28;20028;-45
2022/05/17 01:31:18;;;;;;;1.05;0.70;;;;;;;22.16;48.94;101925.72;5076484;28;20041;-46
2022/05/17 01:33:43;;;;;;;1.17;0.52;;;;;;;22.15;49.21;101927.59;5081225;28;20062;-46
2022/05/17 01:36:11;;;;;;;0.60;0.43;;;;;;;22.16;49.24;101928.44;5083859;28;20032;-46
2022/05/17 01:38:36;;;;;;;0.60;0.50;;;;;;;22.12;49.13;101925.19;5084015;28;20089;-47
2022/05/17 01:41:03;;;;;;;1.38;0.65;;;;;;;22.14;49.11;101925.91;5083705;28;20012;-45
2022/05/17 01:43:28;;;;;;;1.15;0.70;;;;;;;22.13;49.09;101917.91;5083454;28;20029;-47
2022/05/17 01:45:53;;;;;;;0.52;0.50;;;;;;;22.13;49.25;101932.34;5082193;28;20486;-48
2022/05/17 01:48:19;;;;;;;1.35;0.60;;;;;;;22.08;48.92;101926.50;5083760;28;20071;-48
2022/05/17 01:50:44;;;;;;;1.27;0.52;;;;;;;22.13;49.12;101932.34;5082525;28;20032;-46
2022/05/17 01:53:10;;;;;;;1.25;0.68;;;;;;;22.13;49.17;101931.47;5076894;28;20512;-47
2022/05/17 01:55:35;;;;;;;1.15;0.40;;;;;;;22.12;49.09;101933.31;5083676;28;20070;-46
2022/05/17 01:58:01;;;;;;;0.95;0.60;;;;;;;22.11;49.00;101937.03;5075392;28;20017;-48
2022/05/17 02:00:26;;;;;;;1.55;0.60;;;;;;;22.12;49.25;101929.75;5081918;28;20039;-47
2022/05/17 02:02:51;;;;;;;0.70;0.70;;;;;;;22.11;49.00;101937.03;5075287;28;20032;-48
2022/05/17 02:05:18;;;;;;;1.00;0.60;;;;;;;22.11;49.03;101933.47;5083675;28;20050;-46
2022/05/17 02:07:44;;;;;;;0.93;0.60;;;;;;;22.10;49.15;101939.91;5075004;28;20036;-50
2022/05/17 02:10:10;;;;;;;1.65;0.80;;;;;;;22.08;48.87;101931.09;5083452;28;20027;-45
2022/05/17 02:12:36;;;;;;;0.60;0.50;;;;;;;22.09;49.15;101936.34;5074835;28;20058;-48
2022/05/17 02:15:03;;;;;;;1.10;0.50;;;;;;;22.10;48.85;101939.91;5083083;28;20028;-45
2022/05/17 02:17:28;;;;;;;0.82;0.50;;;;;;;22.09;48.83;101936.34;5082794;28;20094;-46
2022/05/17 02:19:54;;;;;;;1.05;0.85;;;;;;;22.09;48.95;101943.59;5082623;28;20074;-47
2022/05/17 02:22:19;;;;;;;0.80;0.60;;;;;;;22.08;48.90;101942.75;5075139;28;20027;-48
2022/05/17 02:24:45;;;;;;;1.10;0.60;;;;;;;22.08;48.90;101947.34;5074996;28;20429;-47
2022/05/17 02:27:10;;;;;;;0.50;0.50;;;;;;;22.07;48.95;101946.50;5066920;28;20031;-46
2022/05/17 02:29:36;;;;;;;0.60;0.43;;;;;;;22.07;48.98;101945.66;5082993;28;20040;-51
2022/05/17 02:32:01;;;;;;;0.88;0.50;;;;;;;22.06;48.94;101941.25;5073507;28;20170;-45
2022/05/17 02:34:26;;;;;;;1.38;0.80;;;;;;;22.06;49.06;101950.22;5081322;28;20512;-47
2022/05/17 02:36:51;;;;;;;1.17;0.68;;;;;;;22.05;48.73;101948.53;5083186;28;20059;-46
2022/05/17 02:39:17;;;;;;;0.60;0.47;;;;;;;22.05;48.98;101948.53;5082757;28;20051;-48
2022/05/17 02:41:42;;;;;;;0.75;0.60;;;;;;;22.05;49.05;101953.09;5075302;28;20429;-47
2022/05/17 02:44:07;;;;;;;0.65;0.50;;;;;;;22.05;48.92;101950.41;5078526;28;20508;-47
2022/05/17 02:46:33;;;;;;;0.80;0.68;;;;;;;22.02;48.84;101946.16;5076163;28;20100;-46
2022/05/17 02:49:01;;;;;;;0.50;0.40;;;;;;;22.04;48.59;101954.94;5080181;28;20036;-47
2022/05/17 02:51:27;;;;;;;1.00;0.75;;;;;;;22.03;48.91;101952.41;5082948;28;20029;-45
2022/05/17 02:53:52;;;;;;;0.63;0.60;;;;;;;22.02;49.10;101956.13;5082559;28;20102;-47
2022/05/17 02:56:17;;;;;;;1.23;0.80;;;;;;;22.00;48.88;101956.28;5082527;28;20115;-48
2022/05/17 02:58:43;;;;;;;0.77;0.50;;;;;;;22.02;48.88;101966.97;5083172;28;20115;-47
2022/05/17 03:01:08;;;;;;;1.20;1.00;;;;;;;;;;5087328;28;20143;-46
2022/05/17 03:03:41;;;;;;;0.82;0.65;;;;;;;22.01;48.90;101955.28;5082950;28;20028;-49
2022/05/17 03:06:08;;;;;;;1.08;0.60;;;;;;;22.00;48.90;101953.56;5074659;28;20033;-47
2022/05/17 03:08:33;;;;;;;0.60;0.40;;;;;;;22.00;48.98;101955.44;5074493;28;20024;-47
2022/05/17 03:10:58;;;;;;;1.27;0.65;;;;;;;;;;5082274;28;20099;-45
2022/05/17 03:13:24;;;;;;;0.70;0.60;;;;;;;21.99;48.74;101957.28;5082386;28;20058;-50
2022/05/17 03:15:50;;;;;;;1.15;0.60;;;;;;;21.99;48.85;101962.72;5081712;28;20028;-48
2022/05/17 03:18:15;;;;;;;0.70;0.68;;;;;;;21.99;48.73;101961.88;5066110;28;20477;-47
2022/05/17 03:20:41;;;;;;;0.80;0.50;;;;;;;21.96;48.78;101960.31;5082702;28;20054;-46
2022/05/17 03:23:06;;;;;;;1.05;0.60;;;;;;;21.96;48.79;101971.16;5082737;28;20050;-45
2022/05/17 03:25:32;;;;;;;1.27;0.57;;;;;;;21.96;48.74;101968.44;5082445;28;20028;-46
2022/05/17 03:27:57;;;;;;;0.60;0.50;;;;;;;21.95;48.97;101970.31;5081122;28;20021;-47
2022/05/17 03:30:22;;;;;;;0.60;0.57;;;;;;;21.95;48.61;101972.16;5073862;28;20037;-46
2022/05/17 03:32:48;;;;;;;0.90;0.60;;;;;;;21.94;48.95;101968.63;5082026;28;20032;-47
2022/05/17 03:35:13;;;;;;;0.80;0.65;;;;;;;21.94;48.82;101963.19;5072497;28;20033;-51
2022/05/17 03:37:38;;;;;;;1.15;0.70;;;;;;;21.93;49.00;101966.94;5070985;28;20033;-51
2022/05/17 03:40:07;;;;;;;1.25;0.55;;;;;;;21.93;48.79;101961.50;5079164;28;20036;-49
2022/05/17 03:42:32;;;;;;;0.90;0.47;;;;;;;21.93;48.68;101963.38;5074449;28;20029;-49
2022/05/17 03:44:58;;;;;;;0.75;0.50;;;;;;;21.92;48.84;101962.53;5082053;28;20036;-52
2022/05/17 03:47:23;;;;;;;0.85;0.63;;;;;;;21.90;48.77;101959.13;5081565;28;20070;-52
2022/05/17 03:49:48;;;;;;;0.68;0.60;;;;;;;21.91;48.63;101971.66;5082804;28;20032;-46
2022/05/17 03:52:14;;;;;;;0.75;0.50;;;;;;;21.91;48.76;101970.81;5076346;28;20028;-49
2022/05/17 03:54:39;;;;;;;1.42;0.82;;;;;;;21.91;48.52;101970.81;5078595;28;20055;-51
2022/05/17 03:57:05;;;;;;;1.05;0.50;;;;;;;21.90;48.91;101961.84;5085587;28;20056;-51
2022/05/17 03:59:31;;;;;;;0.77;0.47;;;;;;;21.90;48.60;101961.84;5077653;28;20066;-50
2022/05/17 04:01:57;;;;;;;0.85;0.52;;;;;;;21.87;48.74;101961.31;5084979;28;20028;-52
2022/05/17 04:04:22;;;;;;;1.55;0.75;;;;;;;21.89;48.73;101967.41;5085594;28;20048;-48
2022/05/17 04:06:47;;;;;;;0.40;0.40;;;;;;;21.89;48.95;101964.72;5077723;28;20038;-48
2022/05/17 04:09:13;;;;;;;0.65;0.57;;;;;;;21.86;48.90;101971.28;5085463;28;20036;-49
2022/05/17 04:11:38;;;;;;;0.70;0.60;;;;;;;21.88;48.54;101974.69;5071257;28;20029;-48
2022/05/17 04:14:04;;;;;;;0.63;0.50;;;;;;;21.87;48.50;101972.97;5085471;28;20029;-45
2022/05/17 04:16:33;;;;;;;0.85;0.65;;;;;;;21.88;48.55;101988.25;5082829;28;20028;-45
2022/05/17 04:18:59;;;;;;;0.57;0.43;;;;;;;21.88;48.80;101985.53;5077533;28;20035;-46
2022/05/17 04:21:24;;;;;;;1.00;0.68;;;;;;;21.88;48.55;101988.25;5085109;28;20025;-45
2022/05/17 04:23:50;;;;;;;0.60;0.60;;;;;;;21.88;48.34;101990.94;5077391;28;20028;-44
2022/05/17 04:26:15;;;;;;;0.52;0.50;;;;;;;21.88;48.66;101995.50;5085194;28;20035;-45
2022/05/17 04:28:40;;;;;;;0.98;0.55;;;;;;;21.87;48.65;101991.94;5076758;28;20031;-46
2022/05/17 04:31:05;;;;;;;1.50;0.77;;;;;;;21.87;48.53;101991.94;5081460;28;20033;-46
2022/05/17 04:33:31;;;;;;;0.63;0.52;;;;;;;21.85;48.47;101985.00;5079849;28;20033;-45
2022/05/17 04:35:56;;;;;;;0.70;0.60;;;;;;;21.87;48.55;101991.94;5082011;28;20055;-50
2022/05/17 04:38:21;;;;;;;1.00;0.70;;;;;;;21.88;48.36;101990.09;5080823;28;20032;-47
2022/05/17 04:40:48;;;;;;;0.63;0.50;;;;;;;21.88;48.29;101988.25;5082920;28;20031;-45
2022/05/17 04:43:13;;;;;;;0.98;0.75;;;;;;;21.83;48.21;101984.28;5085131;28;20119;-44
2022/05/17 04:45:39;;;;;;;0.65;0.60;;;;;;;21.88;48.48;101981.97;5077052;28;20037;-45
2022/05/17 04:48:05;;;;;;;1.10;0.70;;;;;;;21.88;48.27;101982.81;5077985;28;20128;-44
2022/05/17 04:50:30;;;;;;;0.70;0.60;;;;;;;21.89;48.22;101991.78;5077098;28;20396;-46
2022/05/17 04:52:56;;;;;;;0.90;0.60;;;;;;;21.87;48.47;101991.94;5081657;28;20111;-44
2022/05/17 04:55:21;;;;;;;1.73;0.55;;;;;;;21.88;48.51;101993.66;5084720;28;20103;-45
2022/05/17 04:57:47;;;;;;;1.02;0.60;;;;;;;21.86;48.22;101984.81;5084993;28;20573;-46
2022/05/17 05:00:16;;;;;;;0.80;0.57;;;;;;;21.84;48.29;101986.03;5075308;28;20033;-46
2022/05/17 05:02:42;;;;;;;0.93;0.73;;;;;;;21.87;48.13;102002.75;5091691;28;20025;-47
2022/05/17 05:05:07;;;;;;;0.88;0.77;;;;;;;21.86;48.47;101997.53;5074806;28;20124;-49
2022/05/17 05:07:33;;;;;;;1.48;0.60;;;;;;;21.86;48.28;102002.94;5081219;28;20032;-45
2022/05/17 05:09:58;;;;;;;1.90;0.65;;;;;;;21.86;48.43;102011.06;5077687;28;20024;-49
2022/05/17 05:12:24;;;;;;;0.60;0.50;;;;;;;21.86;48.36;102016.47;5080116;28;20032;-48
2022/05/17 05:14:49;;;;;;;1.67;0.90;;;;;;;21.85;48.51;102004.78;5077524;28;20032;-47
2022/05/17 05:17:14;;;;;;;0.52;0.52;;;;;;;21.86;48.46;102011.06;5077467;28;20536;-47
2022/05/17 05:19:40;;;;;;;0.60;0.52;;;;;;;21.84;48.25;102004.97;5080536;28;20496;-48
2022/05/17 05:22:05;;;;;;;0.50;0.40;;;;;;;21.84;48.50;102010.38;5074256;28;20599;-48
2022/05/17 05:24:31;;;;;;;0.93;0.55;;;;;;;21.86;48.58;102014.59;5075607;28;20029;-44
2022/05/17 05:26:57;;;;;;;1.15;0.65;;;;;;;21.85;48.48;102007.50;5079231;28;20091;-45
2022/05/17 05:29:22;;;;;;;0.98;0.70;;;;;;;21.85;48.37;102010.22;5081605;28;20025;-48
2022/05/17 05:31:47;;;;;;;0.88;0.70;;;;;;;21.85;48.36;102006.66;5080514;28;20100;-47
2022/05/17 05:34:13;;;;;;;1.08;0.55;;;;;;;21.86;48.29;102019.19;5078811;28;20028;-47
2022/05/17 05:36:38;;;;;;;0.75;0.50;;;;;;;21.83;48.55;102014.91;5075250;28;20234;-45
2022/05/17 05:39:03;;;;;;;1.05;0.60;;;;;;;21.85;48.31;102025.63;5075702;28;20020;-48
2022/05/17 05:41:28;;;;;;;0.40;0.40;;;;;;;21.84;48.32;102013.94;5076776;28;20048;-50
2022/05/17 05:43:54;;;;;;;1.77;0.60;;;;;;;21.84;48.59;102008.53;5075057;28;20033;-45
2022/05/17 05:46:19;;;;;;;0.73;0.63;;;;;;;21.84;48.41;102022.06;5078085;28;20020;-46
2022/05/17 05:48:44;;;;;;;0.85;0.52;;;;;;;21.84;48.33;102021.22;5078375;28;20517;-45
2022/05/17 05:51:10;;;;;;;0.95;0.70;;;;;;;21.82;48.49;102024.06;5078250;28;20025;-45
2022/05/17 05:53:35;;;;;;;0.85;0.60;;;;;;;21.84;48.43;102030.19;5073681;28;20041;-47
2022/05/17 05:56:03;;;;;;;0.88;0.63;;;;;;;21.85;48.53;102026.47;5077817;28;20020;-46
2022/05/17 05:58:29;;;;;;;0.53;0.53;;;;;;;21.83;48.44;102025.75;5078521;28;20017;-48
2022/05/17 06:00:55;;;;;;;0.93;0.60;;;;;;;21.85;48.47;102036.44;5076630;28;20033;-44
2022/05/17 06:03:20;;;;;;;1.25;0.68;;;;;;;21.85;48.63;102041.84;5078837;28;20016;-44
2022/05/17 06:05:45;;;;;;;1.25;0.47;;;;;;;21.83;48.62;102033.88;5074543;28;20044;-46
2022/05/17 06:08:14;;;;;;;0.75;0.47;;;;;;;21.86;48.79;102043.53;5080024;28;20480;-47
2022/05/17 06:10:41;;;;;;;0.98;0.70;;;;;;;21.86;48.71;102051.66;5081959;28;20058;-44
2022/05/17 06:13:07;;;;;;;1.10;0.60;;;;;;;21.86;48.46;102057.09;5074041;28;20035;-46
2022/05/17 06:15:32;;;;;;;0.70;0.55;;;;;;;21.85;48.46;102058.94;5074242;28;20032;-47
2022/05/17 06:18:01;;;;;;;0.80;0.70;;;;;;;21.85;48.34;102056.25;5082444;28;20036;-47
2022/05/17 06:20:26;;;;;;;0.75;0.60;;;;;;;21.86;48.43;102059.78;5083164;28;20035;-46
2022/05/17 06:22:51;;;;;;;0.65;0.50;;;;;;;21.85;48.35;102055.41;5083435;28;20096;-48
2022/05/17 06:25:16;;;;;;;0.65;0.60;;;;;;;21.82;48.71;102056.56;5073749;28;20033;-45
2022/05/17 06:27:42;;;;;;;0.57;0.50;;;;;;;21.85;48.55;102058.09;5071845;28;20032;-45
2022/05/17 06:30:08;;;;;;;1.00;0.63;;;;;;;21.84;48.67;102059.13;5080524;28;20043;-46
2022/05/17 06:32:33;;;;;;;1.17;0.60;;;;;;;21.84;48.66;102059.97;5077626;28;20032;-47
2022/05/17 06:34:59;;;;;;;1.05;0.50;;;;;;;21.84;48.54;102059.13;5079615;28;20028;-48
2022/05/17 06:37:24;;;;;;;1.08;0.60;;;;;;;21.81;48.53;102054.84;5079601;28;20054;-51
2022/05/17 06:39:49;;;;;;;0.63;0.63;;;;;;;21.84;48.44;102059.97;5080992;28;20054;-50
2022/05/17 06:42:15;;;;;;;0.70;0.50;;;;;;;21.84;48.62;102062.66;5074153;28;20028;-50
2022/05/17 06:44:40;;;;;;;1.25;0.50;;;;;;;21.83;48.82;102063.66;5082908;28;20514;-47
2022/05/17 06:47:06;;;;;;;0.70;0.70;;;;;;;21.84;48.56;102064.53;5078535;28;20029;-49
2022/05/17 06:49:32;;;;;;;0.68;0.60;;;;;;;21.84;48.56;102064.53;5073071;28;20021;-45
2022/05/17 06:52:00;;;;;;;0.60;0.50;;;;;;;21.84;48.37;102067.25;5082692;28;20449;-47
2022/05/17 06:54:25;;;;;;;0.65;0.55;;;;;;;21.84;48.73;102072.66;5082096;28;20052;-49
2022/05/17 06:56:51;;;;;;;0.80;0.50;;;;;;;21.84;48.92;102073.50;5073603;28;20040;-48
2022/05/17 06:59:16;;;;;;;1.05;0.50;;;;;;;21.83;48.92;102071.78;5082742;28;20033;-49
2022/05/17 07:01:41;;;;;;;0.85;0.55;;;;;;;21.83;48.82;102074.47;5082888;28;20020;-47
2022/05/17 07:04:07;;;;;;;0.75;0.50;;;;;;;21.84;48.53;102080.78;5075288;28;20020;-50
2022/05/17 07:06:32;;;;;;;1.40;0.70;;;;;;;21.84;48.72;102076.22;5082567;28;20027;-48
2022/05/17 07:08:57;;;;;;;0.57;0.47;;;;;;;21.84;48.88;102076.22;5081798;28;20091;-47
2022/05/17 07:14:06;;;;;;;0.95;0.57;;;;;;;21.85;48.59;102082.47;5071184;28;20035;-46
2022/05/17 07:16:31;;;;;;;1.25;0.70;;;;;;;21.85;48.44;102088.72;5070005;28;20084;-47
2022/05/17 07:18:57;;;;;;;0.70;0.50;;;;;;;21.86;48.62;102086.88;5072633;28;20052;-48
2022/05/17 07:21:22;;;;;;;0.70;0.60;;;;;;;21.86;48.65;102086.88;5074414;28;20028;-46
2022/05/17 07:23:48;;;;;;;0.82;0.50;;;;;;;21.86;48.59;102085.00;5074168;28;20035;-44
2022/05/17 07:26:13;;;;;;;0.55;0.38;;;;;;;21.87;48.65;102099.38;5077729;28;20031;-47
2022/05/17 07:28:41;;;;;;;1.20;0.50;;;;;;;21.86;48.45;102106.66;5086415;28;20085;-44
2022/05/17 07:31:06;;;;;;;0.90;0.50;;;;;;;21.87;48.43;102102.09;5085502;28;20036;-47
2022/05/17 07:33:32;;;;;;;1.02;0.40;;;;;;;21.86;48.31;102108.53;5078080;28;20016;-45
2022/05/17 07:35:57;;;;;;;0.60;0.55;;;;;;;21.87;48.13;102112.91;5086222;28;20031;-45
2022/05/17 07:38:22;;;;;;;0.68;0.60;;;;;;;21.86;48.43;102113.94;5086327;28;20783;-45
2022/05/17 07:40:49;;;;;;;0.90;0.70;;;;;;;21.86;48.33;102114.78;5086370;28;20028;-43
2022/05/17 07:43:15;;;;;;;0.68;0.40;;;;;;;21.86;48.00;102122.91;5085836;28;20092;-46
2022/05/17 07:45:40;;;;;;;0.50;0.50;;;;;;;21.86;48.34;102117.50;5085239;28;20036;-44
2022/05/17 07:48:06;;;;;;;1.13;0.47;;;;;;;21.86;48.21;102119.34;5084616;28;20033;-46
2022/05/17 07:50:31;;;;;;;0.73;0.52;;;;;;;21.85;48.11;102118.50;5084732;28;20025;-47
2022/05/17 07:52:56;;;;;;;0.60;0.60;;;;;;;21.85;48.29;102114.97;5077769;28;20059;-45
2022/05/17 07:55:21;;;;;;;0.60;0.50;;;;;;;21.85;48.29;102115.81;5074871;28;20028;-46
2022/05/17 07:57:47;;;;;;;0.52;0.40;;;;;;;21.85;48.30;102113.09;5080155;28;20055;-43
2022/05/17 08:00:12;;;;;;;1.30;0.52;;;;;;;21.84;48.57;102107.84;5092231;28;20065;-46
2022/05/17 08:02:38;;;;;;;1.42;0.70;;;;;;;21.85;47.99;102115.81;5085698;28;20029;-47
2022/05/17 08:05:04;;;;;;;0.50;0.50;;;;;;;21.85;48.13;102113.09;5085718;28;20170;-45
2022/05/17 08:07:30;;;;;;;1.65;0.70;;;;;;;21.85;47.99;102117.66;5085859;28;20036;-45
2022/05/17 08:09:55;;;;;;;0.90;0.50;;;;;;;21.84;48.04;102124.94;5085588;28;20036;-46
2022/05/17 08:12:20;;;;;;;0.60;0.32;;;;;;;21.85;48.24;102123.06;5085090;28;20033;-45
2022/05/17 08:14:47;;;;;;;1.00;0.50;;;;;;;21.85;47.99;102123.06;5085983;28;20147;-46
2022/05/17 08:17:12;;;;;;;1.88;0.73;;;;;;;21.84;48.06;102114.13;5076357;28;20028;-45
2022/05/17 08:19:38;;;;;;;0.60;0.57;;;;;;;21.84;48.19;102118.69;5085323;28;20039;-47
2022/05/17 08:22:05;;;;;;;0.63;0.50;;;;;;;21.84;48.38;102127.66;5085435;28;20032;-46
2022/05/17 08:27:31;;;;;;;0.65;0.40;;;;;;;21.84;48.16;102132.22;5079476;28;20024;-44
2022/05/17 08:27:36;;;;;;;1.33;0.68;;;;;;;21.83;48.18;102130.50;5077886;28;20025;-45
2022/05/17 08:30:06;;;;;;;0.80;0.40;;;;;;;21.83;48.20;102130.50;5068578;28;20405;-46
2022/05/17 08:35:15;;;;;;;1.08;0.70;;;;;;;21.82;48.11;102124.22;5077340;28;20047;-47
2022/05/17 08:37:40;;;;;;;0.65;0.47;;;;;;;21.82;48.06;102126.09;5073817;28;20028;-53
2022/05/17 08:40:18;;;;;;;1.10;0.60;;;;;;;21.83;48.17;102123.22;5073071;28;20047;-50
2022/05/17 08:42:56;;;;;;;1.80;1.17;;;;;;;21.83;48.35;102123.22;5076095;28;20058;-47
2022/05/17 08:45:32;;;;;;;0.80;0.43;;;;;;;21.84;48.36;102126.81;5077492;28;20495;-46
2022/05/17 08:47:57;;;;;;;0.70;0.50;;;;;;;21.83;48.37;102125.94;5068095;28;20055;-50
2022/05/17 08:50:26;;;;;;;0.80;0.50;;;;;;;21.83;48.27;102120.50;5076579;28;20024;-48
2022/05/17 08:52:53;;;;;;;0.82;0.50;;;;;;;21.81;48.37;102119.84;5070854;28;20024;-51
2022/05/17 08:55:29;;;;;;;0.70;0.55;;;;;;;21.84;48.11;102124.94;5082259;28;20043;-51
2022/05/17 08:58:01;;;;;;;1.20;0.47;;;;;;;21.84;48.47;102124.94;5072259;28;20083;-50
2022/05/17 09:00:46;;;;;;;0.98;0.60;;;;;;;21.84;48.12;102116.81;5079448;28;20571;-52
2022/05/17 09:03:44;;;;;;;0.43;0.40;;;;;;;21.84;48.43;102124.94;5067554;28;20082;-48
2022/05/17 09:06:34;;;;;;;0.57;0.50;;;;;;;21.84;48.18;102124.09;5075559;28;20490;-49
2022/05/17 09:09:23;;;;;;;2.22;0.60;;;;;;;21.84;48.36;102122.22;5080550;28;20359;-49
2022/05/17 09:12:03;;;;;;;0.68;0.47;;;;;;;21.84;48.50;102126.81;5071129;28;20045;-51
2022/05/17 09:14:31;;;;;;;0.98;0.43;;;;;;;21.84;48.36;102129.50;5077176;28;20043;-50
2022/05/17 09:17:04;;;;;;;0.68;0.55;;;;;;;21.85;48.46;102131.19;5077110;28;20028;-54
2022/05/17 09:19:30;;;;;;;1.00;0.50;;;;;;;21.84;48.38;102138.47;5074231;28;20091;-49
2022/05/17 09:21:58;;;;;;;0.68;0.60;;;;;;;21.83;48.29;102133.19;5077427;28;20055;-52
2022/05/17 09:24:26;;;;;;;0.50;0.40;;;;;;;21.86;48.29;102135.59;5071773;28;20031;-49
2022/05/17 09:27:00;;;;;;;0.75;0.40;;;;;;;21.86;48.30;102130.19;5073023;28;20039;-49
2022/05/17 09:29:40;;;;;;;0.75;0.45;;;;;;;21.86;48.54;102139.16;5071080;28;20078;-47
2022/05/17 09:32:08;;;;;;;1.02;0.50;;;;;;;21.86;48.60;102141.00;5075561;28;20100;-51
2022/05/17 09:34:36;;;;;;;0.63;0.50;;;;;;;21.83;48.41;102133.19;5074145;28;20103;-49
2022/05/17 09:37:09;;;;;;;;;;;;;;;21.81;48.77;102138.78;5078730;28;20288;-49
2022/05/17 09:39:35;;;;;;;0.90;0.55;;;;;;;21.82;48.82;102139.63;5079189;28;19968;-53
2022/05/17 09:42:02;;;;;;;1.27;0.57;;;;;;;21.83;48.67;102141.31;5079473;28;20092;-51
2022/05/17 09:44:30;;;;;;;0.88;0.47;;;;;;;21.83;48.73;102142.16;5070094;28;20650;-48
2022/05/17 09:46:58;;;;;;;0.90;0.40;;;;;;;21.81;48.78;102138.78;5073204;28;20032;-52
2022/05/17 09:52:44;;;;;;;0.73;0.52;;;;;;;21.84;49.11;102140.34;5071845;28;20127;-50
2022/05/17 09:55:23;;;;;;;0.90;0.50;;;;;;;21.84;48.87;102141.19;5079706;28;20056;-51
2022/05/17 09:57:59;;;;;;;1.05;0.85;;;;;;;21.85;49.03;102147.44;5075323;28;20041;-44
2022/05/17 10:00:34;;;;;;;1.02;0.50;;;;;;;21.85;48.89;102147.44;5070051;28;20095;-48
2022/05/17 10:03:02;;;;;;;0.70;0.50;;;;;;;21.81;48.99;102138.78;5078198;28;20032;-50
2022/05/17 10:05:40;;;;;;;1.75;0.57;;;;;;;21.85;48.86;102140.16;5073494;28;20028;-52
2022/05/17 10:08:12;;;;;;;1.02;0.68;;;;;;;21.85;49.08;102142.88;5073498;28;20037;-47
2022/05/17 10:10:43;;;;;;;0.65;0.40;;;;;;;21.84;49.24;102141.19;5075203;28;20032;-50
2022/05/17 10:13:23;;;;;;;0.47;0.40;;;;;;;21.85;48.79;102137.47;5073164;28;20039;-45
2022/05/17 10:15:52;;;;;;;0.68;0.40;;;;;;;21.84;49.31;102134.94;5068059;28;20036;-45
2022/05/17 10:18:30;;;;;;;1.23;0.70;;;;;;;21.85;49.00;102142.03;5075842;28;20036;-45
2022/05/17 10:20:59;;;;;;;0.82;0.43;;;;;;;21.83;48.92;102141.31;5071916;28;20044;-43
2022/05/17 10:24:16;;;;;;;1.17;0.73;;;;;;;21.82;49.12;102137.78;5073140;28;20036;-46
2022/05/17 10:26:49;;;;;;;0.70;0.43;;;;;;;21.82;48.86;102132.34;4998671;28;20069;-44
2022/05/17 10:29:21;;;;;;;0.85;0.47;;;;;;;21.83;48.83;102133.19;4997984;28;20111;-45
2022/05/17 10:32:11;;;;;;;0.63;0.50;;;;;;;21.83;49.06;102133.19;4980923;28;20034;-47
2022/05/17 10:34:56;;;;;;;0.93;0.40;;;;;;;21.84;49.14;102130.34;4961058;28;20237;-46
2022/05/17 10:37:45;;;;;;;0.80;0.40;;;;;;;21.84;49.32;102137.63;4976752;28;20046;-50
2022/05/17 10:40:14;;;;;;;1.35;0.63;;;;;;;21.83;48.94;102125.94;4989130;28;20034;-46
2022/05/17 10:42:41;;;;;;;0.50;0.50;;;;;;;21.84;49.01;102126.81;4994992;28;20057;-45
2022/05/17 10:45:10;;;;;;;2.67;0.60;;;;;;;21.87;49.29;102130.00;4995505;28;20038;-45
2022/05/17 10:47:48;;;;;;;0.68;0.43;;;;;;;21.88;49.15;102125.47;4994995;28;20487;-44
2022/05/17 10:50:28;;;;;;;0.82;0.40;;;;;;;21.88;49.28;102125.47;4997167;28;20054;-44
2022/05/17 10:53:20;;;;;;;0.60;0.40;;;;;;;21.87;49.30;102119.19;4997650;28;20054;-44
2022/05/17 10:56:03;;;;;;;0.63;0.40;;;;;;;21.89;49.10;102119.03;4996591;28;20070;-44
2022/05/17 10:58:41;;;;;;;0.98;0.60;;;;;;;21.87;49.42;102127.31;4996057;28;20113;-46
2022/05/17 11:01:17;;;;;;;1.33;0.40;;;;;;;21.82;49.42;102113.41;5010510;28;20026;-47
2022/05/17 11:04:07;;;;;;;0.68;0.40;;;;;;;21.88;49.68;102122.78;5078691;28;20039;-50
2022/05/17 11:06:40;;;;;;;0.50;0.43;;;;;;;21.88;49.27;102118.19;5085882;28;20059;-49
2022/05/17 11:09:11;;;;;;;0.60;0.35;;;;;;;21.89;49.15;102119.03;5077503;28;20024;-49
2022/05/17 11:12:09;;;;;;;0.45;0.40;;;;;;;21.90;49.39;102118.88;5075774;28;20683;-50
2022/05/17 11:14:41;;;;;;;1.85;0.57;;;;;;;21.91;49.41;102109.75;5083644;28;20044;-48
2022/05/17 11:17:34;;;;;;;0.90;0.40;;;;;;;21.93;49.20;102109.59;5080574;28;20052;-52
2022/05/17 11:20:28;;;;;;;0.77;0.50;;;;;;;21.94;49.32;102109.44;5072349;28;20029;-51
2022/05/17 11:23:31;;;;;;;1.35;0.40;;;;;;;21.95;49.17;102105.69;5067953;28;20020;-50
2022/05/17 11:26:34;;;;;;;0.40;0.30;;;;;;;21.96;49.38;102102.00;5083488;28;20020;-49
2022/05/17 11:29:37;;;;;;;0.70;0.50;;;;;;;21.96;49.55;102095.72;5079417;28;20028;-44
2022/05/17 11:32:14;;;;;;;0.88;0.52;;;;;;;;;;5079875;28;20024;-47
2022/05/17 11:34:44;;;;;;;1.20;0.55;;;;;;;21.99;49.60;102097.28;5076613;28;20028;-46
2022/05/17 11:37:32;;;;;;;1.45;0.60;;;;;;;22.01;49.23;102089.84;5084651;28;20050;-43
2022/05/17 11:39:59;;;;;;;1.33;0.68;;;;;;;21.99;49.03;102090.00;5079487;28;20013;-46
2022/05/17 11:42:24;;;;;;;0.52;0.40;;;;;;;22.03;48.94;102090.53;5083082;28;20429;-45
2022/05/17 11:44:49;;;;;;;0.55;0.40;;;;;;;22.05;49.08;102083.09;5079648;28;20024;-44
2022/05/17 11:47:50;;;;;;;0.95;0.52;;;;;;;22.06;48.79;102087.50;5079866;28;20025;-50
2022/05/17 11:50:15;;;;;;;0.43;0.43;;;;;;;22.07;48.84;102086.47;5052812;28;20044;-48